createdAt,value
2018-06-15T00:00:17.964Z,15.3
2018-06-15T00:01:21.330Z,15.3
2018-06-15T00:02:23.978Z,15.3
2018-06-15T00:03:26.465Z,15.3
2018-06-15T00:04:29.688Z,15.3
2018-06-15T00:05:31.892Z,15.3
2018-06-15T00:06:34.708Z,15.3
2018-06-15T00:07:37.084Z,15.3
2018-06-15T00:08:39.500Z,15.3
2018-06-15T00:09:41.675Z,15.2
2018-06-15T00:10:44.339Z,15.3
2018-06-15T00:11:47.379Z,15.3
2018-06-15T00:12:50.100Z,15.3
2018-06-15T00:13:53.165Z,15.3
2018-06-15T00:14:55.367Z,15.3
2018-06-15T00:15:58.100Z,15.4
2018-06-15T00:17:01.310Z,15.4
2018-06-15T00:18:03.492Z,15.3
2018-06-15T00:19:06.979Z,15.3
2018-06-15T00:20:09.513Z,15.4
2018-06-15T00:21:12.025Z,15.3
2018-06-15T00:22:15.132Z,15.3
2018-06-15T00:23:17.783Z,15.3
2018-06-15T00:24:21.849Z,15.3
2018-06-15T00:25:24.082Z,15.3
2018-06-15T00:26:26.922Z,15.4
2018-06-15T00:27:30.443Z,15.3
2018-06-15T00:28:33.527Z,15.4
2018-06-15T00:29:36.405Z,15.4
2018-06-15T00:30:39.496Z,15.4
2018-06-15T00:31:41.811Z,15.3
2018-06-15T00:32:43.890Z,15.3
2018-06-15T00:33:46.071Z,15.2
2018-06-15T00:34:48.115Z,15.2
2018-06-15T00:35:50.232Z,15.2
2018-06-15T00:36:52.344Z,15.3
2018-06-15T00:37:54.863Z,15.3
2018-06-15T00:38:56.920Z,15.3
2018-06-15T00:39:59.491Z,15.3
2018-06-15T00:41:01.812Z,15.3
2018-06-15T00:42:04.199Z,15.3
2018-06-15T00:43:06.334Z,15.3
2018-06-15T00:44:08.327Z,15.3
2018-06-15T00:45:10.376Z,15.3
2018-06-15T00:46:12.685Z,15.3
2018-06-15T00:47:14.771Z,15.3
2018-06-15T00:48:16.841Z,15.3
2018-06-15T00:49:18.894Z,15.3
2018-06-15T00:50:20.898Z,15.3
2018-06-15T00:51:23.143Z,15.3
2018-06-15T00:52:25.216Z,15.3
2018-06-15T00:53:27.277Z,15.2
2018-06-15T00:54:29.610Z,15.2
2018-06-15T00:55:31.631Z,15.2
2018-06-15T00:56:34.017Z,15.3
2018-06-15T00:57:36.302Z,15.3
2018-06-15T00:58:38.341Z,15.3
2018-06-15T00:59:40.350Z,15.3
2018-06-15T01:00:42.446Z,15.3
2018-06-15T01:01:44.713Z,15.4
2018-06-15T01:02:46.720Z,15.3
2018-06-15T01:03:49.014Z,15.3
2018-06-15T01:04:51.416Z,15.3
2018-06-15T01:05:53.709Z,15.4
2018-06-15T01:06:56.264Z,15.4
2018-06-15T01:07:58.646Z,15.4
2018-06-15T01:09:01.130Z,15.4
2018-06-15T01:10:03.642Z,15.3
2018-06-15T01:11:06.513Z,15.4
2018-06-15T01:12:09.281Z,15.4
2018-06-15T01:13:12.502Z,15.3
2018-06-15T01:14:15.132Z,15.3
2018-06-15T01:15:18.142Z,15.3
2018-06-15T01:16:21.594Z,15.3
2018-06-15T01:17:23.954Z,15.4
2018-06-15T01:18:27.526Z,15.3
2018-06-15T01:19:30.343Z,15.3
2018-06-15T01:20:33.636Z,15.3
2018-06-15T01:21:36.147Z,15.3
2018-06-15T01:22:38.385Z,15.3
2018-06-15T01:23:40.549Z,15.3
2018-06-15T01:24:44.060Z,15.3
2018-06-15T01:25:47.165Z,15.3
2018-06-15T01:26:49.333Z,15.3
2018-06-15T01:27:51.460Z,15.3
2018-06-15T01:28:53.674Z,15.2
2018-06-15T01:29:55.724Z,15.3
2018-06-15T01:30:58.290Z,15.2
2018-06-15T01:32:01.176Z,15.2
2018-06-15T01:33:04.049Z,15.2
2018-06-15T01:34:06.750Z,15.2
2018-06-15T01:35:09.640Z,15.2
2018-06-15T01:36:12.878Z,15.2
2018-06-15T01:37:15.096Z,15.2
2018-06-15T01:38:17.840Z,15.2
2018-06-15T01:39:20.638Z,15.2
2018-06-15T01:40:23.098Z,15.2
2018-06-15T01:41:26.158Z,15.2
2018-06-15T01:42:28.453Z,15.2
2018-06-15T01:43:30.983Z,15.1
2018-06-15T01:44:33.469Z,15.2
2018-06-15T01:45:36.477Z,15.2
2018-06-15T01:46:38.961Z,15.2
2018-06-15T01:47:41.625Z,15.2
2018-06-15T01:48:44.604Z,15.1
2018-06-15T01:49:47.194Z,15.1
2018-06-15T01:50:49.709Z,15.1
2018-06-15T01:51:52.519Z,15.1
2018-06-15T01:52:55.347Z,15.2
2018-06-15T01:53:58.328Z,15.1
2018-06-15T01:55:00.962Z,15.1
2018-06-15T01:56:03.568Z,15.1
2018-06-15T01:57:06.244Z,15.1
2018-06-15T01:58:08.420Z,15.1
2018-06-15T01:59:10.411Z,15.1
2018-06-15T02:00:12.423Z,15.1
2018-06-15T02:01:14.431Z,15.1
2018-06-15T02:02:16.416Z,15.1
2018-06-15T02:03:18.424Z,15.1
2018-06-15T02:04:20.425Z,15
2018-06-15T02:05:22.426Z,15
2018-06-15T02:06:24.438Z,15.1
2018-06-15T02:07:26.438Z,15.1
2018-06-15T02:08:28.485Z,15.1
2018-06-15T02:09:30.520Z,15.1
2018-06-15T02:10:32.544Z,15.1
2018-06-15T02:11:34.549Z,15.1
2018-06-15T02:12:36.840Z,15.1
2018-06-15T02:13:39.145Z,15.1
2018-06-15T02:14:41.372Z,15.1
2018-06-15T02:15:44.194Z,15.1
2018-06-15T02:16:47.112Z,15.1
2018-06-15T02:17:49.660Z,15.1
2018-06-15T02:18:52.063Z,15.1
2018-06-15T02:19:54.519Z,15.1
2018-06-15T02:20:57.001Z,15.1
2018-06-15T02:21:59.967Z,15.1
2018-06-15T02:23:02.488Z,15.2
2018-06-15T02:24:05.060Z,15.1
2018-06-15T02:25:07.067Z,15.2
2018-06-15T02:26:09.069Z,15.2
2018-06-15T02:27:11.084Z,15.1
2018-06-15T02:28:13.360Z,15.1
2018-06-15T02:29:15.645Z,15.1
2018-06-15T02:30:18.026Z,15.1
2018-06-15T02:31:20.320Z,15.1
2018-06-15T02:32:23.598Z,15.1
2018-06-15T02:33:27.377Z,15.1
2018-06-15T02:34:31.096Z,15.1
2018-06-15T02:35:34.825Z,15.1
2018-06-15T02:36:37.913Z,15.1
2018-06-15T02:37:41.543Z,15.1
2018-06-15T02:38:44.776Z,15.1
2018-06-15T02:39:47.062Z,15.1
2018-06-15T02:40:50.818Z,15.1
2018-06-15T02:41:54.915Z,15
2018-06-15T02:42:58.499Z,15
2018-06-15T02:44:01.243Z,15.1
2018-06-15T02:45:03.520Z,15.1
2018-06-15T02:46:06.576Z,15.1
2018-06-15T02:47:08.758Z,15
2018-06-15T02:48:12.709Z,15
2018-06-15T02:49:15.038Z,15
2018-06-15T02:50:17.502Z,15
2018-06-15T02:51:20.255Z,15
2018-06-15T02:52:22.781Z,15
2018-06-15T02:53:25.058Z,14.9
2018-06-15T02:54:27.634Z,15
2018-06-15T02:55:29.666Z,14.9
2018-06-15T02:56:31.662Z,14.9
2018-06-15T02:57:33.685Z,14.9
2018-06-15T02:58:36.385Z,14.9
2018-06-15T02:59:38.389Z,14.9
2018-06-15T03:00:40.389Z,14.9
2018-06-15T03:01:42.664Z,14.9
2018-06-15T03:02:44.996Z,14.9
2018-06-15T03:03:47.343Z,14.9
2018-06-15T03:04:49.765Z,14.9
2018-06-15T03:05:52.753Z,14.8
2018-06-15T03:06:55.667Z,14.8
2018-06-15T03:07:58.804Z,14.8
2018-06-15T03:09:02.058Z,14.8
2018-06-15T03:10:05.316Z,14.8
2018-06-15T03:11:07.540Z,14.8
2018-06-15T03:12:09.737Z,14.8
2018-06-15T03:13:11.796Z,14.8
2018-06-15T03:14:14.462Z,14.7
2018-06-15T03:15:16.982Z,14.7
2018-06-15T03:16:19.166Z,14.7
2018-06-15T03:17:21.500Z,14.7
2018-06-15T03:18:23.563Z,14.7
2018-06-15T03:19:25.625Z,14.7
2018-06-15T03:20:27.719Z,14.7
2018-06-15T03:21:30.107Z,14.7
2018-06-15T03:22:32.152Z,14.7
2018-06-15T03:23:34.165Z,14.7
2018-06-15T03:24:36.302Z,14.6
2018-06-15T03:25:38.362Z,14.6
2018-06-15T03:26:40.399Z,14.7
2018-06-15T03:27:42.781Z,14.7
2018-06-15T03:28:44.894Z,14.6
2018-06-15T03:29:46.966Z,14.7
2018-06-15T03:30:49.424Z,14.6
2018-06-15T03:31:51.730Z,14.6
2018-06-15T03:32:54.118Z,14.7
2018-06-15T03:33:56.153Z,14.7
2018-06-15T03:34:58.162Z,14.8
2018-06-15T03:36:00.441Z,14.7
2018-06-15T03:37:02.858Z,14.7
2018-06-15T03:38:04.849Z,14.7
2018-06-15T03:39:06.855Z,14.8
2018-06-15T03:40:09.132Z,14.8
2018-06-15T03:41:11.137Z,14.8
2018-06-15T03:42:13.150Z,14.8
2018-06-15T03:43:15.452Z,14.8
2018-06-15T03:44:17.681Z,14.9
2018-06-15T03:45:19.672Z,14.9
2018-06-15T03:46:21.702Z,14.9
2018-06-15T03:47:24.825Z,15
2018-06-15T03:48:27.454Z,15
2018-06-15T03:49:29.835Z,15.1
2018-06-15T03:50:31.828Z,15.1
2018-06-15T03:51:33.856Z,15.1
2018-06-15T03:52:35.919Z,15.1
2018-06-15T03:53:37.932Z,15.1
2018-06-15T03:54:40.047Z,15.1
2018-06-15T03:55:42.099Z,15.1
2018-06-15T03:56:44.165Z,15.1
2018-06-15T03:57:46.173Z,15.1
2018-06-15T03:58:48.584Z,15.1
2018-06-15T03:59:50.588Z,15.2
2018-06-15T04:00:52.578Z,15.2
2018-06-15T04:01:54.581Z,15.2
2018-06-15T04:02:56.575Z,15.2
2018-06-15T04:03:58.589Z,15.2
2018-06-15T04:05:01.008Z,15.2
2018-06-15T04:06:03.042Z,15.2
2018-06-15T04:07:05.081Z,15.3
2018-06-15T04:08:07.116Z,15.3
2018-06-15T04:09:09.137Z,15.3
2018-06-15T04:10:11.130Z,15.3
2018-06-15T04:11:13.456Z,15.4
2018-06-15T04:12:15.727Z,15.3
2018-06-15T04:13:17.840Z,15.4
2018-06-15T04:14:20.817Z,15.3
2018-06-15T04:15:23.324Z,15.3
2018-06-15T04:16:26.066Z,15.3
2018-06-15T04:17:28.074Z,15.4
2018-06-15T04:18:30.396Z,15.4
2018-06-15T04:19:32.517Z,15.4
2018-06-15T04:20:34.552Z,15.4
2018-06-15T04:21:36.750Z,15.4
2018-06-15T04:22:38.807Z,15.4
2018-06-15T04:23:40.853Z,15.4
2018-06-15T04:24:43.177Z,15.4
2018-06-15T04:25:45.264Z,15.5
2018-06-15T04:26:47.793Z,15.4
2018-06-15T04:27:50.031Z,15.5
2018-06-15T04:28:52.926Z,15.5
2018-06-15T04:29:54.939Z,15.5
2018-06-15T04:30:57.015Z,15.5
2018-06-15T04:31:59.523Z,15.6
2018-06-15T04:33:01.905Z,15.6
2018-06-15T04:34:04.315Z,15.6
2018-06-15T04:35:06.896Z,15.6
2018-06-15T04:36:09.191Z,15.6
2018-06-15T04:37:11.797Z,15.6
2018-06-15T04:38:14.479Z,15.6
2018-06-15T04:39:17.107Z,15.6
2018-06-15T04:40:20.374Z,15.7
2018-06-15T04:41:22.799Z,15.7
2018-06-15T04:42:25.078Z,15.7
2018-06-15T04:43:27.912Z,15.7
2018-06-15T04:44:30.182Z,15.7
2018-06-15T04:45:32.408Z,15.7
2018-06-15T04:46:34.538Z,15.7
2018-06-15T04:47:36.717Z,15.8
2018-06-15T04:48:38.842Z,15.7
2018-06-15T04:49:41.092Z,15.8
2018-06-15T04:50:43.263Z,15.7
2018-06-15T04:51:45.550Z,15.7
2018-06-15T04:52:47.759Z,15.8
2018-06-15T04:53:50.191Z,15.8
2018-06-15T04:54:52.195Z,15.8
2018-06-15T04:55:54.193Z,15.9
2018-06-15T04:56:56.183Z,15.9
2018-06-15T04:57:58.320Z,15.8
2018-06-15T04:59:00.397Z,15.9
2018-06-15T05:00:02.393Z,15.9
2018-06-15T05:01:04.474Z,15.9
2018-06-15T05:02:06.825Z,15.9
2018-06-15T05:03:09.163Z,15.9
2018-06-15T05:04:11.203Z,15.9
2018-06-15T05:05:13.249Z,15.9
2018-06-15T05:06:15.242Z,15.9
2018-06-15T05:07:17.308Z,15.9
2018-06-15T05:08:19.317Z,15.8
2018-06-15T05:09:21.876Z,15.9
2018-06-15T05:10:24.708Z,15.9
2018-06-15T05:11:27.704Z,15.9
2018-06-15T05:12:29.979Z,15.9
2018-06-15T05:13:32.427Z,15.9
2018-06-15T05:14:35.561Z,15.9
2018-06-15T05:15:37.886Z,15.9
2018-06-15T05:16:40.261Z,15.8
2018-06-15T05:17:42.348Z,15.8
2018-06-15T05:18:44.629Z,15.9
2018-06-15T05:19:48.637Z,15.9
2018-06-15T05:20:50.846Z,15.9
2018-06-15T05:21:54.471Z,15.9
2018-06-15T05:22:57.405Z,15.9
2018-06-15T05:23:59.896Z,15.9
2018-06-15T05:25:02.030Z,16
2018-06-15T05:26:04.024Z,15.9
2018-06-15T05:27:06.028Z,16
2018-06-15T05:28:08.054Z,16
2018-06-15T05:29:10.046Z,16
2018-06-15T05:30:12.431Z,16.1
2018-06-15T05:31:14.419Z,16.1
2018-06-15T05:32:16.424Z,16.1
2018-06-15T05:33:18.444Z,16.2
2018-06-15T05:34:21.118Z,16.2
2018-06-15T05:35:23.178Z,16.2
2018-06-15T05:36:25.148Z,16.2
2018-06-15T05:37:27.426Z,16.2
2018-06-15T05:38:29.807Z,16.2
2018-06-15T05:39:31.792Z,16.3
2018-06-15T05:40:34.182Z,16.3
2018-06-15T05:41:36.187Z,16.3
2018-06-15T05:42:38.264Z,16.4
2018-06-15T05:43:40.214Z,16.5
2018-06-15T05:44:42.206Z,16.5
2018-06-15T05:45:44.210Z,16.5
2018-06-15T05:46:46.215Z,16.5
2018-06-15T05:47:48.601Z,16.5
2018-06-15T05:48:50.611Z,16.5
2018-06-15T05:49:53.047Z,16.5
2018-06-15T05:50:55.327Z,16.5
2018-06-15T05:51:57.325Z,16.6
2018-06-15T05:52:59.710Z,16.6
2018-06-15T05:54:02.003Z,16.6
2018-06-15T05:55:04.013Z,16.6
2018-06-15T05:56:06.325Z,16.6
2018-06-15T05:57:08.316Z,16.6
2018-06-15T05:58:10.315Z,16.6
2018-06-15T05:59:12.321Z,16.7
2018-06-15T06:00:14.314Z,16.8
2018-06-15T06:01:16.624Z,16.7
2018-06-15T06:02:18.621Z,16.8
2018-06-15T06:03:20.616Z,16.7
2018-06-15T06:04:22.986Z,16.8
2018-06-15T06:05:24.985Z,16.8
2018-06-15T06:06:26.991Z,16.7
2018-06-15T06:07:28.987Z,16.7
2018-06-15T06:08:31.275Z,16.8
2018-06-15T06:09:33.304Z,16.8
2018-06-15T06:10:35.585Z,17
2018-06-15T06:11:37.901Z,16.9
2018-06-15T06:12:39.909Z,16.9
2018-06-15T06:13:41.911Z,16.9
2018-06-15T06:14:43.936Z,16.9
2018-06-15T06:15:45.935Z,17
2018-06-15T06:16:47.935Z,17
2018-06-15T06:17:50.224Z,17
2018-06-15T06:18:52.216Z,17
2018-06-15T06:19:54.212Z,17
2018-06-15T06:20:56.217Z,17
2018-06-15T06:21:58.227Z,17.1
2018-06-15T06:23:00.236Z,17
2018-06-15T06:24:02.236Z,17.1
2018-06-15T06:25:04.523Z,17.1
2018-06-15T06:26:06.803Z,17.1
2018-06-15T06:27:08.805Z,17.2
2018-06-15T06:28:10.808Z,17.1
2018-06-15T06:29:12.819Z,17
2018-06-15T06:30:14.823Z,17.1
2018-06-15T06:31:16.818Z,17.2
2018-06-15T06:32:18.825Z,17.3
2018-06-15T06:33:20.820Z,17.2
2018-06-15T06:34:22.830Z,17.1
2018-06-15T06:35:24.831Z,17.2
2018-06-15T06:36:26.849Z,17.2
2018-06-15T06:37:28.846Z,17.4
2018-06-15T06:38:30.845Z,17.3
2018-06-15T06:39:32.853Z,17.3
2018-06-15T06:40:34.860Z,17.4
2018-06-15T06:41:36.867Z,17.3
2018-06-15T06:42:38.874Z,17.4
2018-06-15T06:43:41.251Z,17.5
2018-06-15T06:44:43.535Z,17.5
2018-06-15T06:45:45.530Z,17.7
2018-06-15T06:46:47.533Z,17.6
2018-06-15T06:47:49.531Z,17.7
2018-06-15T06:48:51.547Z,17.7
2018-06-15T06:49:53.546Z,17.8
2018-06-15T06:50:55.553Z,17.7
2018-06-15T06:51:57.551Z,17.8
2018-06-15T06:52:59.566Z,17.8
2018-06-15T06:54:01.578Z,17.7
2018-06-15T06:55:03.851Z,17.7
2018-06-15T06:56:05.859Z,17.7
2018-06-15T06:57:07.856Z,17.8
2018-06-15T06:58:09.856Z,17.7
2018-06-15T06:59:11.861Z,17.8
2018-06-15T07:00:13.857Z,17.8
2018-06-15T07:01:15.860Z,17.8
2018-06-15T07:02:17.881Z,17.9
2018-06-15T07:03:19.866Z,17.8
2018-06-15T07:04:22.178Z,17.8
2018-06-15T07:05:24.184Z,17.7
2018-06-15T07:06:26.196Z,17.7
2018-06-15T07:07:28.191Z,17.7
2018-06-15T07:08:30.189Z,17.8
2018-06-15T07:09:32.203Z,17.8
2018-06-15T07:10:34.202Z,17.8
2018-06-15T07:11:36.486Z,17.8
2018-06-15T07:12:38.502Z,17.6
2018-06-15T07:13:40.505Z,17.7
2018-06-15T07:14:42.501Z,17.7
2018-06-15T07:15:44.507Z,17.8
2018-06-15T07:16:46.505Z,17.9
2018-06-15T07:17:48.516Z,17.9
2018-06-15T07:18:50.895Z,18
2018-06-15T07:19:52.893Z,18.1
2018-06-15T07:20:54.899Z,18.1
2018-06-15T07:21:56.895Z,18.1
2018-06-15T07:22:58.896Z,17.9
2018-06-15T07:24:00.907Z,18
2018-06-15T07:25:03.187Z,18.1
2018-06-15T07:26:05.467Z,18.2
2018-06-15T07:27:07.467Z,18.3
2018-06-15T07:28:09.465Z,18.3
2018-06-15T07:29:11.466Z,18.3
2018-06-15T07:30:13.480Z,18.3
2018-06-15T07:31:15.870Z,18.2
2018-06-15T07:32:18.156Z,18.3
2018-06-15T07:33:20.449Z,18.3
2018-06-15T07:34:22.449Z,18.3
2018-06-15T07:35:24.437Z,18.4
2018-06-15T07:36:26.444Z,18.5
2018-06-15T07:37:28.461Z,18.5
2018-06-15T07:38:30.847Z,18.7
2018-06-15T07:39:32.851Z,18.6
2018-06-15T07:40:35.245Z,18.7
2018-06-15T07:41:37.257Z,18.8
2018-06-15T07:42:39.264Z,18.8
2018-06-15T07:43:41.270Z,18.9
2018-06-15T07:44:43.561Z,19
2018-06-15T07:45:45.559Z,19.2
2018-06-15T07:46:47.560Z,19.1
2018-06-15T07:47:49.559Z,19.2
2018-06-15T07:48:51.568Z,18.9
2018-06-15T07:49:54.138Z,18.9
2018-06-15T07:50:56.137Z,19
2018-06-15T07:51:58.137Z,18.9
2018-06-15T07:53:00.140Z,18.8
2018-06-15T07:54:02.136Z,19
2018-06-15T07:55:04.427Z,19.1
2018-06-15T07:56:06.425Z,19.2
2018-06-15T07:57:08.442Z,19.3
2018-06-15T07:58:10.739Z,19.3
2018-06-15T07:59:12.736Z,19.2
2018-06-15T08:00:14.753Z,19
2018-06-15T08:01:16.749Z,18.9
2018-06-15T08:02:18.759Z,18.9
2018-06-15T08:03:20.765Z,19
2018-06-15T08:04:22.827Z,19
2018-06-15T08:05:25.116Z,19.3
2018-06-15T08:06:27.394Z,19.5
2018-06-15T08:07:29.403Z,19.4
2018-06-15T08:08:31.417Z,19.3
2018-06-15T08:09:33.428Z,19.3
2018-06-15T08:10:35.419Z,19.1
2018-06-15T08:11:37.423Z,19.1
2018-06-15T08:12:39.424Z,19
2018-06-15T08:13:41.434Z,19.1
2018-06-15T08:14:43.446Z,18.9
2018-06-15T08:15:45.456Z,19.1
2018-06-15T08:16:48.051Z,19.2
2018-06-15T08:17:50.052Z,19
2018-06-15T08:18:52.052Z,19
2018-06-15T08:19:54.058Z,19
2018-06-15T08:20:56.065Z,18.9
2018-06-15T08:21:58.071Z,19
2018-06-15T08:23:00.074Z,19
2018-06-15T08:24:02.078Z,19.1
2018-06-15T08:25:04.105Z,19.1
2018-06-15T08:26:06.092Z,19.5
2018-06-15T08:27:08.103Z,19.5
2018-06-15T08:28:10.103Z,19.5
2018-06-15T08:29:12.107Z,19.8
2018-06-15T08:30:14.101Z,20
2018-06-15T08:31:16.105Z,20
2018-06-15T08:32:18.428Z,20.1
2018-06-15T08:33:20.434Z,20.2
2018-06-15T08:34:22.440Z,20.2
2018-06-15T08:35:24.823Z,20.1
2018-06-15T08:36:26.828Z,19.9
2018-06-15T08:37:28.826Z,19.8
2018-06-15T08:38:30.834Z,19.8
2018-06-15T08:39:33.131Z,19.4
2018-06-15T08:40:35.138Z,19.4
2018-06-15T08:41:37.517Z,19.4
2018-06-15T08:42:39.910Z,19.5
2018-06-15T08:43:42.208Z,19.5
2018-06-15T08:44:44.809Z,19.5
2018-06-15T08:45:47.093Z,19.5
2018-06-15T08:46:49.101Z,19.5
2018-06-15T08:47:51.380Z,19.8
2018-06-15T08:48:53.396Z,19.8
2018-06-15T08:49:55.683Z,19.8
2018-06-15T08:50:57.690Z,19.8
2018-06-15T08:51:59.702Z,20
2018-06-15T08:53:01.714Z,20.1
2018-06-15T08:54:03.726Z,20.1
2018-06-15T08:55:06.009Z,20.5
2018-06-15T08:56:08.018Z,20.6
2018-06-15T08:57:10.040Z,20.6
2018-06-15T08:58:12.033Z,20.9
2018-06-15T08:59:14.043Z,20.7
2018-06-15T09:00:16.059Z,21.1
2018-06-15T09:01:18.068Z,21.3
2018-06-15T09:02:20.638Z,21
2018-06-15T09:03:22.648Z,21.1
2018-06-15T09:04:24.652Z,21.2
2018-06-15T09:05:26.662Z,21.4
2018-06-15T09:06:28.655Z,21.1
2018-06-15T09:07:30.685Z,20.9
2018-06-15T09:08:32.697Z,21
2018-06-15T09:09:34.706Z,21
2018-06-15T09:10:36.711Z,21.2
2018-06-15T09:11:38.725Z,20.7
2018-06-15T09:12:40.777Z,20.9
2018-06-15T09:13:43.069Z,21.6
2018-06-15T09:14:45.071Z,21.8
2018-06-15T09:15:47.356Z,21.6
2018-06-15T09:16:49.367Z,21.7
2018-06-15T09:17:51.424Z,21.7
2018-06-15T09:18:53.427Z,21.2
2018-06-15T09:19:55.832Z,21.4
2018-06-15T09:20:57.831Z,21.5
2018-06-15T09:21:59.851Z,22.1
2018-06-15T09:23:01.863Z,22.1
2018-06-15T09:24:04.153Z,22
2018-06-15T09:25:06.186Z,21.9
2018-06-15T09:26:08.195Z,22
2018-06-15T09:27:10.476Z,21.7
2018-06-15T09:28:12.496Z,21.4
2018-06-15T09:29:14.499Z,21
2018-06-15T09:30:16.541Z,21.1
2018-06-15T09:31:18.534Z,20.7
2018-06-15T09:32:20.539Z,20.8
2018-06-15T09:33:22.874Z,20.6
2018-06-15T09:34:25.173Z,20.7
2018-06-15T09:35:27.606Z,21.3
2018-06-15T09:36:29.848Z,21.6
2018-06-15T09:37:31.916Z,21.8
2018-06-15T09:38:33.917Z,22.2
2018-06-15T09:39:35.956Z,22.4
2018-06-15T09:40:38.043Z,22.3
2018-06-15T09:41:40.105Z,22.6
2018-06-15T09:42:42.158Z,22.5
2018-06-15T09:43:44.611Z,22.2
2018-06-15T09:44:46.627Z,22.1
2018-06-15T09:45:48.992Z,21.7
2018-06-15T09:46:51.046Z,21.4
2018-06-15T09:47:53.405Z,21.5
2018-06-15T09:48:55.469Z,21.5
2018-06-15T09:49:57.774Z,21.5
2018-06-15T09:51:00.516Z,21.4
2018-06-15T09:52:02.531Z,21.3
2018-06-15T09:53:04.625Z,21.1
2018-06-15T09:54:06.660Z,21.2
2018-06-15T09:55:08.677Z,21.1
2018-06-15T09:56:10.815Z,21.3
2018-06-15T09:57:12.819Z,21.6
2018-06-15T09:58:15.141Z,21.7
2018-06-15T09:59:17.156Z,22.1
2018-06-15T10:00:19.189Z,22.2
2018-06-15T10:01:21.204Z,22.3
2018-06-15T10:02:23.200Z,22
2018-06-15T10:03:25.230Z,22.2
2018-06-15T10:04:27.538Z,22.3
2018-06-15T10:05:29.569Z,22
2018-06-15T10:06:31.669Z,21.8
2018-06-15T10:07:33.683Z,21.9
2018-06-15T10:08:35.686Z,21.6
2018-06-15T10:09:37.700Z,21.7
2018-06-15T10:10:39.713Z,21.7
2018-06-15T10:11:42.027Z,21.5
2018-06-15T10:12:44.057Z,21.5
2018-06-15T10:13:46.413Z,21.1
2018-06-15T10:14:48.466Z,21.4
2018-06-15T10:15:50.855Z,21.1
2018-06-15T10:16:52.870Z,21.4
2018-06-15T10:17:54.884Z,21.7
2018-06-15T10:18:57.017Z,22.1
2018-06-15T10:19:59.019Z,22.3
2018-06-15T10:21:01.046Z,22.9
2018-06-15T10:22:03.172Z,22.7
2018-06-15T10:23:05.178Z,22.4
2018-06-15T10:24:07.287Z,22.4
2018-06-15T10:25:09.474Z,22.5
2018-06-15T10:26:11.480Z,22.4
2018-06-15T10:27:13.894Z,22.4
2018-06-15T10:28:16.253Z,22.3
2018-06-15T10:29:18.262Z,22.1
2018-06-15T10:30:20.658Z,22.1
2018-06-15T10:31:22.669Z,21.9
2018-06-15T10:32:24.676Z,22
2018-06-15T10:33:26.683Z,22.2
2018-06-15T10:34:28.690Z,22.4
2018-06-15T10:35:30.709Z,22.5
2018-06-15T10:36:32.723Z,22.4
2018-06-15T10:37:34.721Z,22.7
2018-06-15T10:38:36.732Z,23.1
2018-06-15T10:39:38.784Z,23.2
2018-06-15T10:40:40.749Z,23.3
2018-06-15T10:41:42.758Z,23.3
2018-06-15T10:42:44.769Z,23
2018-06-15T10:43:46.773Z,23.4
2018-06-15T10:44:48.776Z,24
2018-06-15T10:45:51.099Z,23.4
2018-06-15T10:46:53.111Z,23.5
2018-06-15T10:47:55.128Z,23
2018-06-15T10:48:57.141Z,23
2018-06-15T10:49:59.155Z,22.8
2018-06-15T10:51:01.440Z,22.3
2018-06-15T10:52:03.455Z,22.3
2018-06-15T10:53:05.748Z,22.5
2018-06-15T10:54:07.776Z,22.8
2018-06-15T10:55:09.787Z,22.9
2018-06-15T10:56:12.199Z,23.1
2018-06-15T10:57:14.200Z,22.8
2018-06-15T10:58:16.203Z,22.8
2018-06-15T10:59:18.224Z,22.7
2018-06-15T11:00:20.245Z,23.1
2018-06-15T11:01:22.258Z,23.4
2018-06-15T11:02:24.989Z,23.7
2018-06-15T11:03:26.970Z,23.6
2018-06-15T11:04:29.252Z,23.6
2018-06-15T11:05:31.270Z,23.9
2018-06-15T11:06:33.289Z,23.8
2018-06-15T11:07:35.298Z,23.6
2018-06-15T11:08:37.325Z,24.2
2018-06-15T11:09:39.324Z,24.2
2018-06-15T11:10:41.340Z,23.7
2018-06-15T11:11:43.648Z,23.7
2018-06-15T11:12:45.950Z,23.6
2018-06-15T11:13:47.986Z,23.3
2018-06-15T11:14:50.002Z,23
2018-06-15T11:15:52.015Z,23.2
2018-06-15T11:16:54.304Z,23.4
2018-06-15T11:17:56.327Z,23.4
2018-06-15T11:18:58.346Z,23.7
2018-06-15T11:20:00.624Z,23.9
2018-06-15T11:21:03.310Z,24.2
2018-06-15T11:22:05.603Z,24.3
2018-06-15T11:23:07.615Z,24.2
2018-06-15T11:24:10.189Z,23.6
2018-06-15T11:25:12.217Z,23.5
2018-06-15T11:26:14.234Z,23.2
2018-06-15T11:27:16.252Z,23.3
2018-06-15T11:28:18.248Z,23.3
2018-06-15T11:29:20.268Z,23.3
2018-06-15T11:30:22.282Z,22.9
2018-06-15T11:31:24.304Z,23.3
2018-06-15T11:32:26.310Z,23.5
2018-06-15T11:33:29.005Z,23.4
2018-06-15T11:34:31.029Z,23.2
2018-06-15T11:35:33.699Z,23.3
2018-06-15T11:36:35.713Z,23.6
2018-06-15T11:37:37.728Z,23.7
2018-06-15T11:38:39.734Z,23.7
2018-06-15T11:39:41.740Z,23.5
2018-06-15T11:40:43.751Z,23.6
2018-06-15T11:41:45.775Z,23.8
2018-06-15T11:42:47.795Z,23.6
2018-06-15T11:43:50.087Z,23.7
2018-06-15T11:44:52.101Z,23.9
2018-06-15T11:45:54.123Z,23.6
2018-06-15T11:46:56.130Z,23.8
2018-06-15T11:47:58.143Z,23.6
2018-06-15T11:49:00.551Z,23.5
2018-06-15T11:50:02.565Z,23.1
2018-06-15T11:51:04.561Z,23.1
2018-06-15T11:52:06.576Z,23.3
2018-06-15T11:53:08.975Z,24
2018-06-15T11:54:10.982Z,24.1
2018-06-15T11:55:13.003Z,24.3
2018-06-15T11:56:15.022Z,24.7
2018-06-15T11:57:17.024Z,25
2018-06-15T11:58:19.330Z,25.6
2018-06-15T11:59:21.341Z,25.7
2018-06-15T12:00:23.349Z,26
2018-06-15T12:01:25.371Z,25.8
2018-06-15T12:02:27.388Z,25.5
2018-06-15T12:03:29.406Z,25
2018-06-15T12:04:31.421Z,24.4
2018-06-15T12:05:33.494Z,24.8
2018-06-15T12:06:35.460Z,25
2018-06-15T12:07:38.066Z,25.3
2018-06-15T12:08:40.088Z,25.3
2018-06-15T12:09:42.109Z,25.3
2018-06-15T12:10:44.119Z,25.3
2018-06-15T12:11:46.132Z,25
2018-06-15T12:12:48.134Z,25
2018-06-15T12:13:50.158Z,24.6
2018-06-15T12:14:52.168Z,24.7
2018-06-15T12:15:54.176Z,24.3
2018-06-15T12:16:56.196Z,24.2
2018-06-15T12:17:58.216Z,24.3
2018-06-15T12:19:00.233Z,25.2
2018-06-15T12:20:02.543Z,25
2018-06-15T12:21:04.551Z,25.3
2018-06-15T12:22:06.572Z,25.4
2018-06-15T12:23:08.581Z,25.3
2018-06-15T12:24:10.593Z,25.4
2018-06-15T12:25:13.002Z,25.9
2018-06-15T12:26:15.397Z,25.9
2018-06-15T12:27:17.416Z,25.1
2018-06-15T12:28:19.727Z,25
2018-06-15T12:29:22.125Z,24.4
2018-06-15T12:30:24.145Z,24.3
2018-06-15T12:31:26.146Z,24.8
2018-06-15T12:32:28.555Z,24.8
2018-06-15T12:33:30.577Z,25
2018-06-15T12:34:32.607Z,25
2018-06-15T12:35:34.920Z,25
2018-06-15T12:36:36.912Z,24.8
2018-06-15T12:37:38.927Z,24.6
2018-06-15T12:38:40.943Z,25.3
2018-06-15T12:39:43.237Z,25.5
2018-06-15T12:40:45.242Z,25.8
2018-06-15T12:41:47.263Z,25.9
2018-06-15T12:42:49.292Z,25.8
2018-06-15T12:43:51.305Z,25.4
2018-06-15T12:44:53.318Z,25.4
2018-06-15T12:45:56.034Z,25.1
2018-06-15T12:46:57.910Z,25
2018-06-15T12:47:59.934Z,25.2
2018-06-15T12:49:02.228Z,25
2018-06-15T12:50:04.536Z,24.8
2018-06-15T12:51:06.566Z,24.1
2018-06-15T12:52:08.572Z,23.9
2018-06-15T12:53:10.590Z,24
2018-06-15T12:54:12.611Z,24.4
2018-06-15T12:55:14.616Z,24.3
2018-06-15T12:56:16.643Z,24.6
2018-06-15T12:57:18.654Z,24.4
2018-06-15T12:58:20.669Z,23.9
2018-06-15T12:59:22.685Z,23.9
2018-06-15T13:00:24.693Z,24.2
2018-06-15T13:01:27.002Z,24.3
2018-06-15T13:02:29.402Z,24.2
2018-06-15T13:03:31.688Z,24.5
2018-06-15T13:04:33.725Z,24.3
2018-06-15T13:05:36.013Z,24.7
2018-06-15T13:06:38.028Z,24.2
2018-06-15T13:07:40.435Z,24.2
2018-06-15T13:08:42.445Z,24.2
2018-06-15T13:09:44.468Z,24.5
2018-06-15T13:10:46.486Z,24.3
2018-06-15T13:11:48.768Z,24.3
2018-06-15T13:12:51.182Z,24.3
2018-06-15T13:13:53.204Z,23.7
2018-06-15T13:14:55.226Z,23.5
2018-06-15T13:15:57.628Z,23.4
2018-06-15T13:16:59.641Z,23.6
2018-06-15T13:18:02.628Z,23.6
2018-06-15T13:19:04.642Z,23.8
2018-06-15T13:20:06.670Z,24.2
2018-06-15T13:21:08.673Z,23.9
2018-06-15T13:22:10.696Z,23.9
2018-06-15T13:23:12.713Z,24.1
2018-06-15T13:24:15.525Z,24
2018-06-15T13:25:18.111Z,23.6
2018-06-15T13:26:20.126Z,23.9
2018-06-15T13:27:22.708Z,24
2018-06-15T13:28:24.713Z,23.7
2018-06-15T13:29:26.729Z,23.7
2018-06-15T13:30:29.139Z,23.8
2018-06-15T13:31:31.433Z,23.8
2018-06-15T13:32:33.578Z,24.2
2018-06-15T13:33:35.672Z,24.5
2018-06-15T13:34:39.293Z,24.6
2018-06-15T13:35:41.509Z,24.8
2018-06-15T13:36:44.940Z,24.4
2018-06-15T13:37:49.478Z,24.6
2018-06-15T13:38:52.588Z,25
2018-06-15T13:39:54.968Z,24.8
2018-06-15T13:41:01.384Z,24.8
2018-06-15T13:42:03.401Z,24.5
2018-06-15T13:43:05.415Z,24.5
2018-06-15T13:44:07.433Z,24.4
2018-06-15T13:45:09.455Z,24.6
2018-06-15T13:46:11.764Z,24.5
2018-06-15T13:47:13.775Z,23.9
2018-06-15T13:48:15.792Z,23.5
2018-06-15T13:49:18.501Z,23.4
2018-06-15T13:50:20.593Z,23.3
2018-06-15T13:51:22.622Z,23.1
2018-06-15T13:52:24.642Z,23.1
2018-06-15T13:53:26.662Z,23.2